Sandvig, Denmark
Current Conditions -  °F | °C
As of 2:50 PM on Saturday 20 Dec 2014 (Local Time) from EKRN Reporting Station
Broken Clouds Broken Clouds  
Wind Chill: 32°   Ceiling: 4000
Heat Index: 43°   Visibility: 6mi
Dew Point: 37°   Wind: 33mph
Humidity: 81%   Direction: 260°W
Pressure: 29.44"   Gusts: NA
Location:  55.28°N, 14.78°E
Report Text: EKRN 201350Z AUTO 26029KT 9999NDV FEW018/// BKN040///06/03 Q0997
Loading
Personal Weather Stations






























Interactive Weather Map New forecast layout! Learn more

10-Day Weather Forecast

Advertisements
Track Severe Weather on mobile